Time;durP1;ratioP1;P1;durP2;ratioP2;P2;SDS_P1;SDS_P2;PMS_P1;PMS_P2;Temp;Humidity;BMP_temperature;BMP_pressure;BME280_temperature;BME280_humidity;BME280_pressure;Samples;Min_cycle;Max_cycle;Signal;HPM_P1;HPM_P2
2021/11/29 00:01:40;;;;;;;3.10;2.80;;;;;;;;;;5111885;27;20226;-45
2021/11/29 00:04:06;;;;;;;3.20;2.90;;;;;;;;;;5107825;27;20234;-45
2021/11/29 00:06:32;;;;;;;2.78;2.58;;;;;;;;;;5104128;27;20287;-45
2021/11/29 00:08:58;;;;;;;2.95;2.70;;;;;;;;;;5103049;28;20188;-45
2021/11/29 00:11:24;;;;;;;3.35;2.80;;;;;;;;;;5102275;28;20219;-45
2021/11/29 00:13:51;;;;;;;3.20;2.80;;;;;;;;;;5116593;27;20173;-45
2021/11/29 00:16:17;;;;;;;2.97;2.70;;;;;;;;;;5105064;28;20188;-45
2021/11/29 00:18:43;;;;;;;2.78;2.58;;;;;;;;;;5124684;28;20446;-45
2021/11/29 00:21:11;;;;;;;3.17;2.88;;;;;;;;;;5122555;27;20180;-45
2021/11/29 00:23:37;;;;;;;3.10;2.72;;;;;;;;;;5122389;28;20172;-45
2021/11/29 00:26:04;;;;;;;3.15;2.58;;;;;;;;;;5113656;28;20183;-45
2021/11/29 00:28:30;;;;;;;2.97;2.67;;;;;;;;;;5119055;28;20189;-45
2021/11/29 00:30:56;;;;;;;2.58;2.38;;;;;;;;;;5116707;28;20204;-45
2021/11/29 00:33:23;;;;;;;3.00;2.70;;;;;;;;;;5121541;28;20177;-45
2021/11/29 00:35:49;;;;;;;2.80;2.60;;;;;;;;;;5124421;28;20203;-45
2021/11/29 00:38:15;;;;;;;3.53;2.63;;;;;;;;;;5129180;28;20562;-45
2021/11/29 00:40:41;;;;;;;2.72;2.53;;;;;;;;;;5114323;28;20184;-45
2021/11/29 00:43:08;;;;;;;2.63;2.42;;;;;;;;;;5112939;28;20188;-45
2021/11/29 00:45:34;;;;;;;2.75;2.55;;;;;;;;;;5124526;28;20199;-45
2021/11/29 00:48:00;;;;;;;2.50;2.30;;;;;;;;;;5107908;28;20212;-45
2021/11/29 00:50:27;;;;;;;2.53;2.33;;;;;;;;;;5121174;28;20205;-45
2021/11/29 00:52:53;;;;;;;3.00;2.42;;;;;;;;;;5120435;28;20211;-45
2021/11/29 00:55:19;;;;;;;2.75;2.17;;;;;;;;;;5129553;28;20180;-45
2021/11/29 00:57:46;;;;;;;2.30;2.10;;;;;;;;;;5116793;28;20171;-45
2021/11/29 01:00:13;;;;;;;2.53;2.33;;;;;;;;;;5119138;28;20188;-45
2021/11/29 01:02:39;;;;;;;2.75;2.38;;;;;;;;;;5105454;28;20516;-45
2021/11/29 01:05:06;;;;;;;2.60;2.40;;;;;;;;;;5121627;28;20491;-46
2021/11/29 01:07:32;;;;;;;2.55;2.35;;;;;;;;;;5114183;28;20185;-45
2021/11/29 01:09:58;;;;;;;2.60;2.40;;;;;;;;;;5100714;28;20195;-45
2021/11/29 01:12:24;;;;;;;2.53;2.33;;;;;;;;;;5119444;27;20177;-45
2021/11/29 01:14:50;;;;;;;2.67;2.25;;;;;;;;;;5124482;27;20208;-45
2021/11/29 01:17:16;;;;;;;2.30;2.10;;;;;;;;;;5112628;27;20290;-45
2021/11/29 01:19:42;;;;;;;2.10;2.00;;;;;;;;;;5127607;27;20474;-45
2021/11/29 01:22:08;;;;;;;2.20;2.03;;;;;;;;;;5111440;27;20174;-45
2021/11/29 01:24:34;;;;;;;2.30;2.10;;;;;;;;;;5130765;27;20210;-45
2021/11/29 01:27:01;;;;;;;2.83;2.20;;;;;;;;;;5116671;27;20197;-45
2021/11/29 01:29:27;;;;;;;2.50;2.30;;;;;;;;;;5120659;27;20192;-45
2021/11/29 01:31:53;;;;;;;2.22;2.03;;;;;;;;;;5127141;27;20204;-45
2021/11/29 01:34:19;;;;;;;2.25;2.05;;;;;;;;;;5104491;27;20454;-45
2021/11/29 01:36:45;;;;;;;2.58;2.38;;;;;;;;;;5115930;27;20184;-45
2021/11/29 01:39:12;;;;;;;2.42;1.90;;;;;;;;;;5127163;27;20189;-45
2021/11/29 01:41:41;;;;;;;2.22;1.83;;;;;;;;;;5119247;27;20176;-45
2021/11/29 01:44:07;;;;;;;2.30;2.10;;;;;;;;;;5131949;27;20733;-45
2021/11/29 01:46:33;;;;;;;2.22;2.13;;;;;;;;;;5106224;27;20177;-45
2021/11/29 01:48:59;;;;;;;2.38;2.17;;;;;;;;;;5116624;27;20250;-45
2021/11/29 01:51:24;;;;;;;2.88;2.20;;;;;;;;;;5115461;27;20243;-45
2021/11/29 01:53:50;;;;;;;1.92;1.73;;;;;;;;;;5127127;27;20177;-45
2021/11/29 01:56:17;;;;;;;2.20;2.00;;;;;;;;;;5117598;27;20458;-45
2021/11/29 01:58:42;;;;;;;2.33;2.13;;;;;;;;;;5123261;27;20183;-45
2021/11/29 02:01:13;;;;;;;2.50;2.30;;;;;;;;;;5104257;27;20206;-45
2021/11/29 02:03:39;;;;;;;2.85;2.40;;;;;;;;;;5103641;27;20189;-45
2021/11/29 02:06:05;;;;;;;2.20;2.00;;;;;;;;;;5100395;28;20178;-45
2021/11/29 02:08:32;;;;;;;2.13;1.90;;;;;;;;;;5104304;27;20237;-45
2021/11/29 02:10:58;;;;;;;2.10;1.90;;;;;;;;;;5113598;27;20205;-45
2021/11/29 02:13:24;;;;;;;1.98;1.77;;;;;;;;;;5103144;27;20181;-45
2021/11/29 02:15:53;;;;;;;2.10;1.95;;;;;;;;;;5117003;27;20219;-45
2021/11/29 02:18:23;;;;;;;1.90;1.80;;;;;;;;;;5110478;27;20182;-45
2021/11/29 02:21:06;;;;;;;2.20;2.00;;;;;;;;;;5114062;27;20197;-45
2021/11/29 02:23:33;;;;;;;2.05;1.92;;;;;;;;;;5120366;27;20206;-45
2021/11/29 02:25:59;;;;;;;2.22;2.03;;;;;;;;;;5109925;27;20184;-45
2021/11/29 02:28:25;;;;;;;1.92;1.75;;;;;;;;;;5128614;27;20487;-44
2021/11/29 02:30:52;;;;;;;1.80;1.70;;;;;;;;;;5103988;28;20576;-45
2021/11/29 02:33:18;;;;;;;1.73;1.63;;;;;;;;;;5127754;27;20610;-45
2021/11/29 02:35:44;;;;;;;2.00;1.90;;;;;;;;;;5109750;27;20288;-45
2021/11/29 02:38:10;;;;;;;1.88;1.77;;;;;;;;;;5119704;27;20165;-45
2021/11/29 02:40:36;;;;;;;1.85;1.75;;;;;;;;;;5114193;27;20471;-45
2021/11/29 02:43:02;;;;;;;2.22;1.83;;;;;;;;;;5120765;27;20173;-45
2021/11/29 02:45:28;;;;;;;1.92;1.83;;;;;;;;;;5111528;27;20280;-45
2021/11/29 02:47:55;;;;;;;1.75;1.65;;;;;;;;;;5115077;27;20213;-45
2021/11/29 02:50:21;;;;;;;2.20;1.80;;;;;;;;;;5116131;27;20253;-45
2021/11/29 02:52:47;;;;;;;1.90;1.80;;;;;;;;;;5119282;27;20188;-45
2021/11/29 02:55:13;;;;;;;2.05;1.95;;;;;;;;;;5124051;27;20176;-45
2021/11/29 02:57:39;;;;;;;1.85;1.75;;;;;;;;;;5104046;28;20540;-45
2021/11/29 03:00:07;;;;;;;1.80;1.70;;;;;;;;;;5115311;27;20191;-45
2021/11/29 03:02:33;;;;;;;1.80;1.70;;;;;;;;;;5125335;27;20203;-45
2021/11/29 03:05:00;;;;;;;1.52;1.42;;;;;;;;;;5122171;27;20671;-45
2021/11/29 03:07:26;;;;;;;1.67;1.55;;;;;;;;;;5102163;28;20231;-45
2021/11/29 03:09:52;;;;;;;2.13;1.92;;;;;;;;;;5124860;27;20675;-45
2021/11/29 03:12:18;;;;;;;1.88;1.77;;;;;;;;;;5112011;27;20213;-45
2021/11/29 03:14:44;;;;;;;1.60;1.50;;;;;;;;;;5117426;27;20173;-45
2021/11/29 03:17:10;;;;;;;2.00;1.60;;;;;;;;;;5112997;27;20173;-45
2021/11/29 03:19:37;;;;;;;1.63;1.52;;;;;;;;;;5109984;28;20262;-46
2021/11/29 03:22:05;;;;;;;2.10;1.80;;;;;;;;;;5110447;28;20216;-45
2021/11/29 03:24:31;;;;;;;1.60;1.50;;;;;;;;;;5122174;27;20219;-45
2021/11/29 03:26:57;;;;;;;1.95;1.63;;;;;;;;;;5127563;27;20209;-45
2021/11/29 03:29:24;;;;;;;1.45;1.35;;;;;;;;;;5120514;27;20177;-45
2021/11/29 03:31:52;;;;;;;1.70;1.60;;;;;;;;;;5124141;27;20466;-45
2021/11/29 03:34:19;;;;;;;1.75;1.65;;;;;;;;;;5107177;27;20189;-45
2021/11/29 03:36:47;;;;;;;2.00;1.90;;;;;;;;;;5125093;27;20180;-45
2021/11/29 03:39:23;;;;;;;1.67;1.58;;;;;;;;;;5121396;27;20180;-45
2021/11/29 03:41:50;;;;;;;1.75;1.65;;;;;;;;;;5126284;27;20180;-46
2021/11/29 03:44:16;;;;;;;1.75;1.65;;;;;;;;;;5114290;27;20188;-45
2021/11/29 03:46:43;;;;;;;1.85;1.75;;;;;;;;;;5108076;27;20563;-45
2021/11/29 03:49:09;;;;;;;2.40;2.03;;;;;;;;;;5108532;27;20209;-45
2021/11/29 03:51:35;;;;;;;1.73;1.63;;;;;;;;;;5117118;27;20599;-45
2021/11/29 03:54:01;;;;;;;2.10;1.83;;;;;;;;;;5113762;27;20181;-45
2021/11/29 03:56:27;;;;;;;1.67;1.58;;;;;;;;;;5110662;27;20288;-45
2021/11/29 03:58:53;;;;;;;1.60;1.50;;;;;;;;;;5120276;27;20241;-45
2021/11/29 04:01:19;;;;;;;2.00;1.80;;;;;;;;;;5124550;27;20199;-45
2021/11/29 04:03:46;;;;;;;1.70;1.60;;;;;;;;;;5118167;27;20193;-45
2021/11/29 04:06:12;;;;;;;1.40;1.40;;;;;;;;;;5099473;28;20250;-45
2021/11/29 04:08:38;;;;;;;1.80;1.70;;;;;;;;;;5104037;28;20196;-45
2021/11/29 04:11:04;;;;;;;1.40;1.30;;;;;;;;;;5114257;27;20212;-45
2021/11/29 04:13:30;;;;;;;1.50;1.40;;;;;;;;;;5130243;27;20187;-45
2021/11/29 04:15:56;;;;;;;1.70;1.55;;;;;;;;;;5111417;27;20177;-44
2021/11/29 04:18:22;;;;;;;1.80;1.70;;;;;;;;;;5114720;27;20873;-45
2021/11/29 04:20:49;;;;;;;1.50;1.40;;;;;;;;;;5127109;27;20256;-45
2021/11/29 04:23:15;;;;;;;2.25;1.30;;;;;;;;;;5107303;28;20169;-45
2021/11/29 04:26:00;;;;;;;1.40;1.30;;;;;;;;;;5121694;27;20180;-45
2021/11/29 04:28:26;;;;;;;1.40;1.30;;;;;;;;;;5108978;28;20184;-45
2021/11/29 04:30:52;;;;;;;1.77;1.67;;;;;;;;;;5109629;28;20208;-45
2021/11/29 04:33:19;;;;;;;1.48;1.35;;;;;;;;;;5120837;28;20177;-45
2021/11/29 04:35:45;;;;;;;1.85;1.70;;;;;;;;;;5109778;28;20196;-45
2021/11/29 04:38:11;;;;;;;1.75;1.65;;;;;;;;;;5112755;28;20178;-45
2021/11/29 04:40:38;;;;;;;1.50;1.40;;;;;;;;;;5126253;28;20176;-45
2021/11/29 04:43:04;;;;;;;1.58;1.48;;;;;;;;;;5116977;28;20678;-45
2021/11/29 04:45:33;;;;;;;1.50;1.40;;;;;;;;;;5125797;27;20571;-45
2021/11/29 04:47:59;;;;;;;1.40;1.30;;;;;;;;;;5122042;27;20185;-45
2021/11/29 04:50:26;;;;;;;1.60;1.50;;;;;;;;;;5122101;27;20641;-45
2021/11/29 04:52:52;;;;;;;1.65;1.55;;;;;;;;;;5124029;27;20178;-45
2021/11/29 04:55:18;;;;;;;1.60;1.50;;;;;;;;;;5121556;27;20438;-45
2021/11/29 04:57:44;;;;;;;1.60;1.50;;;;;;;;;;5122363;27;20177;-45
2021/11/29 05:00:11;;;;;;;1.55;1.45;;;;;;;;;;5124353;27;20180;-45
2021/11/29 05:02:37;;;;;;;1.27;1.17;;;;;;;;;;5112848;27;20205;-45
2021/11/29 05:05:04;;;;;;;1.52;1.38;;;;;;;;;;5108302;27;20287;-45
2021/11/29 05:07:30;;;;;;;1.67;1.58;;;;;;;;;;5106385;28;20189;-45
2021/11/29 05:09:56;;;;;;;1.85;1.65;;;;;;;;;;5120381;27;20192;-45
2021/11/29 05:12:22;;;;;;;3.50;1.60;;;;;;;;;;5119068;27;20181;-44
2021/11/29 05:14:49;;;;;;;1.67;1.40;;;;;;;;;;5114217;27;20180;-45
2021/11/29 05:17:16;;;;;;;1.60;1.50;;;;;;;;;;5114101;27;20181;-45
2021/11/29 05:19:42;;;;;;;1.75;1.65;;;;;;;;;;5124626;27;20361;-45
2021/11/29 05:22:08;;;;;;;1.92;1.52;;;;;;;;;;5128499;27;20612;-45
2021/11/29 05:24:34;;;;;;;4.57;2.15;;;;;;;;;;5117781;27;20191;-45
2021/11/29 05:27:01;;;;;;;8.18;2.13;;;;;;;;;;5116493;27;20185;-44
2021/11/29 05:29:27;;;;;;;7.40;2.50;;;;;;;;;;5120104;27;20797;-44
2021/11/29 05:31:53;;;;;;;6.88;3.10;;;;;;;;;;5131716;27;20196;-44
2021/11/29 05:34:19;;;;;;;14.70;3.92;;;;;;;;;;5117007;27;20230;-44
2021/11/29 05:36:45;;;;;;;16.50;5.50;;;;;;;;;;5125549;27;20837;-44
2021/11/29 05:39:14;;;;;;;21.23;6.07;;;;;;;;;;5121889;27;20199;-44
2021/11/29 05:41:40;;;;;;;25.00;7.10;;;;;;;;;;5129364;27;20200;-45
2021/11/29 05:44:06;;;;;;;26.73;6.95;;;;;;;;;;5117739;27;20212;-45
2021/11/29 05:46:32;;;;;;;24.17;6.88;;;;;;;;;;5112712;27;20195;-45
2021/11/29 05:48:58;;;;;;;25.80;7.07;;;;;;;;;;5124003;27;20210;-45
2021/11/29 05:51:24;;;;;;;29.13;8.55;;;;;;;;;;5122947;27;20205;-45
2021/11/29 05:53:50;;;;;;;28.90;8.43;;;;;;;;;;5105463;27;20172;-45
2021/11/29 05:56:17;;;;;;;28.05;8.70;;;;;;;;;;5125678;27;20437;-45
2021/11/29 05:58:43;;;;;;;29.67;8.57;;;;;;;;;;5107551;27;20189;-45
2021/11/29 06:01:09;;;;;;;30.58;9.35;;;;;;;;;;5120572;27;20185;-45
2021/11/29 06:03:35;;;;;;;28.65;8.95;;;;;;;;;;5121462;27;20647;-45
2021/11/29 06:06:02;;;;;;;26.13;8.50;;;;;;;;;;5111629;27;20189;-45
2021/11/29 06:08:28;;;;;;;27.13;8.23;;;;;;;;;;5116911;27;20252;-45
2021/11/29 06:10:54;;;;;;;25.77;8.18;;;;;;;;;;5136132;27;20211;-45
2021/11/29 06:13:20;;;;;;;23.40;8.27;;;;;;;;;;5116930;27;20189;-45
2021/11/29 06:15:46;;;;;;;27.33;8.57;;;;;;;;;;5120381;27;20172;-45
2021/11/29 06:18:12;;;;;;;22.27;7.88;;;;;;;;;;5120476;27;20176;-45
2021/11/29 06:20:38;;;;;;;22.40;8.38;;;;;;;;;;5125566;27;20600;-45
2021/11/29 06:23:05;;;;;;;27.90;7.78;;;;;;;;;;5112872;27;20188;-45
2021/11/29 06:25:32;;;;;;;26.23;7.57;;;;;;;;;;5114755;27;20181;-44
2021/11/29 06:27:58;;;;;;;24.48;7.88;;;;;;;;;;5105014;27;20188;-45
2021/11/29 06:30:24;;;;;;;24.23;7.65;;;;;;;;;;5121102;27;20442;-45
2021/11/29 06:32:51;;;;;;;17.23;6.60;;;;;;;;;;5094011;28;20623;-45
2021/11/29 06:35:17;;;;;;;22.02;7.68;;;;;;;;;;5102970;28;20181;-45
2021/11/29 06:37:46;;;;;;;19.83;6.82;;;;;;;;;;5094585;28;20189;-45
2021/11/29 06:40:12;;;;;;;18.17;6.82;;;;;;;;;;5102630;28;20178;-45
2021/11/29 06:42:38;;;;;;;18.50;6.47;;;;;;;;;;5102901;28;20221;-45
2021/11/29 06:45:05;;;;;;;20.50;6.63;;;;;;;;;;5103478;28;20184;-45
2021/11/29 06:47:31;;;;;;;17.17;6.65;;;;;;;;;;5113244;28;20200;-45
2021/11/29 06:49:57;;;;;;;15.15;6.13;;;;;;;;;;5108039;28;20177;-45
2021/11/29 06:52:23;;;;;;;16.58;6.45;;;;;;;;;;5097348;28;20181;-45
2021/11/29 06:54:50;;;;;;;15.00;6.03;;;;;;;;;;5104608;27;20189;-45
2021/11/29 06:57:17;;;;;;;15.82;5.80;;;;;;;;;;5121754;27;20201;-45
2021/11/29 06:59:44;;;;;;;14.77;5.97;;;;;;;;;;5119381;27;20508;-44
2021/11/29 07:02:10;;;;;;;17.80;5.97;;;;;;;;;;5115993;27;20624;-44
2021/11/29 07:04:37;;;;;;;15.88;6.32;;;;;;;;;;5110421;27;20207;-45
2021/11/29 07:07:03;;;;;;;14.77;5.75;;;;;;;;;;5114897;27;20245;-44
2021/11/29 07:09:29;;;;;;;16.75;5.38;;;;;;;;;;5104580;27;20193;-44
2021/11/29 07:11:55;;;;;;;14.85;5.40;;;;;;;;;;5103450;27;20258;-44
2021/11/29 07:14:22;;;;;;;18.33;5.90;;;;;;;;;;5100356;28;20956;-45
2021/11/29 07:16:49;;;;;;;13.75;5.93;;;;;;;;;;5105859;28;20274;-45
2021/11/29 07:19:16;;;;;;;16.95;5.57;;;;;;;;;;5093835;28;20209;-45
2021/11/29 07:21:46;;;;;;;10.55;4.50;;;;;;;;;;5119051;27;20551;-45
2021/11/29 07:24:12;;;;;;;13.07;5.35;;;;;;;;;;5105093;27;20295;-46
2021/11/29 07:26:40;;;;;;;12.15;4.75;;;;;;;;;;5120757;27;20184;-45
2021/11/29 07:29:06;;;;;;;12.07;5.35;;;;;;;;;;5117523;27;20207;-45
2021/11/29 07:31:33;;;;;;;11.77;4.97;;;;;;;;;;5126288;27;20243;-45
2021/11/29 07:33:59;;;;;;;13.27;5.30;;;;;;;;;;5099672;28;20177;-45
2021/11/29 07:36:25;;;;;;;11.38;5.22;;;;;;;;;;5102394;28;20193;-45
2021/11/29 07:38:51;;;;;;;11.20;4.90;;;;;;;;;;5097822;28;20181;-45
2021/11/29 07:41:17;;;;;;;8.82;4.78;;;;;;;;;;5099732;28;20260;-45
2021/11/29 07:43:43;;;;;;;9.85;4.20;;;;;;;;;;5098947;28;20311;-45
2021/11/29 07:46:10;;;;;;;12.70;4.65;;;;;;;;;;5095863;28;20199;-45
2021/11/29 07:48:36;;;;;;;11.80;4.50;;;;;;;;;;5102959;28;20184;-45
2021/11/29 07:51:02;;;;;;;10.90;4.43;;;;;;;;;;5105172;28;20213;-45
2021/11/29 07:53:28;;;;;;;8.93;4.35;;;;;;;;;;5085504;28;20295;-45
2021/11/29 07:55:54;;;;;;;8.68;3.80;;;;;;;;;;5105814;28;20177;-45
2021/11/29 07:58:21;;;;;;;8.35;3.95;;;;;;;;;;5102370;28;20214;-45
2021/11/29 08:00:47;;;;;;;9.93;4.30;;;;;;;;;;5100109;28;20185;-44
2021/11/29 08:03:13;;;;;;;8.32;4.07;;;;;;;;;;5104984;28;20229;-45
2021/11/29 08:05:40;;;;;;;8.43;4.05;;;;;;;;;;5100882;28;20621;-45
2021/11/29 08:08:06;;;;;;;9.75;4.15;;;;;;;;;;5101143;28;20186;-44
2021/11/29 08:10:34;;;;;;;9.68;3.92;;;;;;;;;;5115662;27;20196;-44
2021/11/29 08:13:00;;;;;;;8.65;4.32;;;;;;;;;;5122487;27;20191;-45
2021/11/29 08:15:27;;;;;;;8.05;3.75;;;;;;;;;;5113686;27;20182;-45
2021/11/29 08:17:53;;;;;;;8.88;3.70;;;;;;;;;;5127707;27;20176;-45
2021/11/29 08:20:19;;;;;;;7.35;3.95;;;;;;;;;;5114462;28;20177;-45
2021/11/29 08:22:46;;;;;;;6.78;3.70;;;;;;;;;;5129722;27;20216;-45
2021/11/29 08:25:12;;;;;;;7.85;3.33;;;;;;;;;;5121630;28;20181;-45
2021/11/29 08:27:38;;;;;;;6.90;3.90;;;;;;;;;;5117592;28;20560;-45
2021/11/29 08:30:05;;;;;;;6.55;3.60;;;;;;;;;;5101987;28;20262;-45
2021/11/29 08:32:31;;;;;;;10.18;3.63;;;;;;;;;;5129050;28;20185;-45
2021/11/29 08:34:57;;;;;;;6.70;3.33;;;;;;;;;;5104202;28;20258;-45
2021/11/29 08:37:23;;;;;;;4.18;2.80;;;;;;;;;;5130960;28;20165;-45
2021/11/29 08:39:49;;;;;;;5.55;3.63;;;;;;;;;;5120154;28;20509;-45
2021/11/29 08:42:15;;;;;;;6.80;3.63;;;;;;;;;;5111692;28;20182;-44
2021/11/29 08:44:41;;;;;;;6.00;3.05;;;;;;;;;;5120059;28;20191;-44
2021/11/29 08:47:07;;;;;;;7.45;3.60;;;;;;;;;;5115492;28;20181;-44
2021/11/29 08:49:33;;;;;;;5.65;3.38;;;;;;;;;;5108892;28;20199;-44
2021/11/29 08:51:59;;;;;;;7.28;3.40;;;;;;;;;;5127428;28;20598;-44
2021/11/29 08:54:25;;;;;;;6.10;3.03;;;;;;;;;;5120671;28;20169;-45
2021/11/29 08:56:52;;;;;;;5.75;3.03;;;;;;;;;;5100178;28;20557;-45
2021/11/29 08:59:19;;;;;;;5.70;3.17;;;;;;;;;;5102035;28;20282;-45
2021/11/29 09:01:45;;;;;;;5.15;2.83;;;;;;;;;;5102296;28;20189;-44
2021/11/29 09:04:13;;;;;;;6.75;2.92;;;;;;;;;;5100497;28;20236;-44
2021/11/29 09:06:39;;;;;;;5.57;2.92;;;;;;;;;;5101360;28;20229;-44
2021/11/29 09:09:05;;;;;;;5.40;2.60;;;;;;;;;;5079827;28;20186;-44
2021/11/29 09:11:31;;;;;;;6.15;3.25;;;;;;;;;;5101432;28;20201;-44
2021/11/29 09:13:57;;;;;;;5.30;2.88;;;;;;;;;;5104857;28;20196;-44
2021/11/29 09:16:23;;;;;;;6.15;3.13;;;;;;;;;;5104261;28;20576;-45
2021/11/29 09:18:49;;;;;;;4.65;3.10;;;;;;;;;;5100232;28;20188;-45
2021/11/29 09:21:17;;;;;;;4.93;2.80;;;;;;;;;;5104117;28;20181;-45
2021/11/29 09:23:43;;;;;;;6.22;2.95;;;;;;;;;;5099783;28;20204;-44
2021/11/29 09:26:09;;;;;;;4.32;2.50;;;;;;;;;;5101789;28;20235;-45
2021/11/29 09:28:35;;;;;;;5.78;3.10;;;;;;;;;;5100412;28;20186;-44
2021/11/29 09:31:02;;;;;;;4.88;2.78;;;;;;;;;;5103478;28;20205;-44
2021/11/29 09:33:28;;;;;;;6.93;3.33;;;;;;;;;;5104212;28;20481;-44
2021/11/29 09:35:54;;;;;;;3.92;2.78;;;;;;;;;;5105031;28;20173;-44
2021/11/29 09:38:20;;;;;;;6.35;3.22;;;;;;;;;;5098834;28;20372;-44
2021/11/29 09:40:47;;;;;;;5.10;2.72;;;;;;;;;;5107242;28;20591;-44
2021/11/29 09:43:15;;;;;;;3.08;2.50;;;;;;;;;;5102720;28;20186;-44
2021/11/29 09:45:42;;;;;;;5.18;3.75;;;;;;;;;;5121854;27;20279;-44
2021/11/29 09:48:08;;;;;;;3.50;2.35;;;;;;;;;;5117197;27;20189;-44
2021/11/29 09:50:34;;;;;;;4.18;2.70;;;;;;;;;;5115237;27;20200;-45
2021/11/29 09:53:00;;;;;;;3.22;2.58;;;;;;;;;;5127079;27;20185;-45
2021/11/29 09:55:27;;;;;;;3.70;2.88;;;;;;;;;;5118914;27;20457;-45
2021/11/29 09:57:54;;;;;;;4.45;2.60;;;;;;;;;;5125758;27;20188;-45
2021/11/29 10:00:26;;;;;;;4.22;2.58;;;;;;;;;;5120511;27;20177;-43
2021/11/29 10:02:52;;;;;;;5.13;2.90;;;;;;;;;;5131254;27;20188;-45
2021/11/29 10:05:19;;;;;;;3.83;2.42;;;;;;;;;;5125348;27;20186;-45
2021/11/29 10:07:49;;;;;;;3.58;2.55;;;;;;;;;;5105851;28;20213;-45
2021/11/29 10:10:18;;;;;;;4.03;2.30;;;;;;;;;;5111155;27;20265;-45
2021/11/29 10:12:46;;;;;;;4.88;2.20;;;;;;;;;;5120335;27;20181;-45
2021/11/29 10:15:14;;;;;;;3.33;2.35;;;;;;;;;;5124784;27;20177;-44
2021/11/29 10:17:40;;;;;;;3.72;2.50;;;;;;;;;;5116943;27;20173;-45
2021/11/29 10:20:07;;;;;;;3.60;2.38;;;;;;;;;;5105787;27;20239;-44
2021/11/29 10:22:33;;;;;;;4.57;2.30;;;;;;;;;;5122699;27;20184;-44
2021/11/29 10:25:12;;;;;;;3.35;2.42;;;;;;;;;;5100385;27;20180;-44
2021/11/29 10:27:40;;;;;;;3.60;2.53;;;;;;;;;;5103389;27;20568;-44
2021/11/29 10:30:07;;;;;;;3.75;2.30;;;;;;;;;;5114055;27;20231;-44
2021/11/29 10:32:35;;;;;;;3.72;2.40;;;;;;;;;;5120580;27;20173;-44
2021/11/29 10:35:01;;;;;;;4.43;2.50;;;;;;;;;;5118103;27;20177;-44
2021/11/29 10:37:30;;;;;;;3.50;2.03;;;;;;;;;;5098834;27;20182;-44
2021/11/29 10:39:56;;;;;;;4.18;2.08;;;;;;;;;;5108648;27;20601;-44
2021/11/29 10:42:25;;;;;;;3.15;2.10;;;;;;;;;;5115235;27;20184;-44
2021/11/29 10:44:54;;;;;;;3.35;2.40;;;;;;;;;;5125132;27;20204;-45
2021/11/29 10:47:21;;;;;;;3.47;2.30;;;;;;;;;;5122134;27;20212;-44
2021/11/29 10:49:51;;;;;;;3.00;1.80;;;;;;;;;;5111693;27;20177;-44
2021/11/29 10:52:18;;;;;;;4.50;2.33;;;;;;;;;;5131801;27;20203;-44
2021/11/29 10:54:45;;;;;;;3.60;2.30;;;;;;;;;;5114819;27;20181;-45
2021/11/29 10:57:12;;;;;;;2.63;2.13;;;;;;;;;;5129828;27;20563;-44
2021/11/29 10:59:40;;;;;;;2.15;1.80;;;;;;;;;;5100452;27;20231;-44
2021/11/29 11:02:09;;;;;;;3.38;2.00;;;;;;;;;;5118783;27;20287;-44
2021/11/29 11:04:38;;;;;;;3.58;2.05;;;;;;;;;;5116474;27;20207;-44
2021/11/29 11:07:11;;;;;;;2.65;2.03;;;;;;;;;;5105247;27;21000;-44
2021/11/29 11:09:39;;;;;;;2.40;1.80;;;;;;;;;;5115850;27;20197;-44
2021/11/29 11:12:14;;;;;;;4.82;2.30;;;;;;;;;;5109406;27;20201;-45
2021/11/29 11:14:45;;;;;;;3.35;2.00;;;;;;;;;;5102193;27;20220;-44
2021/11/29 11:17:12;;;;;;;3.00;2.20;;;;;;;;;;5124791;27;20196;-44
2021/11/29 11:19:40;;;;;;;2.78;2.10;;;;;;;;;;5108877;27;20177;-44
2021/11/29 11:22:20;;;;;;;2.25;1.70;;;;;;;;;;5113147;27;20192;-44
2021/11/29 11:24:51;;;;;;;2.60;2.17;;;;;;;;;;5106542;27;20187;-44
2021/11/29 11:27:17;;;;;;;3.75;2.25;;;;;;;;;;5127586;27;20254;-44
2021/11/29 11:29:46;;;;;;;2.60;1.80;;;;;;;;;;5119530;27;20256;-44
2021/11/29 11:32:12;;;;;;;2.30;1.65;;;;;;;;;;5122851;27;20595;-44
2021/11/29 11:34:39;;;;;;;2.08;1.90;;;;;;;;;;5106090;27;20212;-45
2021/11/29 11:37:05;;;;;;;2.38;1.60;;;;;;;;;;5126722;27;20563;-44
2021/11/29 11:39:31;;;;;;;2.55;1.80;;;;;;;;;;5121520;27;20556;-44
2021/11/29 11:41:57;;;;;;;2.75;1.70;;;;;;;;;;5129799;27;20203;-44
2021/11/29 11:44:24;;;;;;;2.42;1.73;;;;;;;;;;5112997;27;20188;-44
2021/11/29 11:46:50;;;;;;;2.10;1.88;;;;;;;;;;5129065;27;20237;-44
2021/11/29 11:49:16;;;;;;;3.80;1.80;;;;;;;;;;5106142;27;20182;-44
2021/11/29 11:51:42;;;;;;;1.73;1.60;;;;;;;;;;5121916;27;20224;-44
2021/11/29 11:54:08;;;;;;;2.38;1.60;;;;;;;;;;5112195;27;20180;-44
2021/11/29 11:56:34;;;;;;;2.15;1.60;;;;;;;;;;5125076;27;20210;-44
2021/11/29 11:59:09;;;;;;;2.70;1.52;;;;;;;;;;5103672;27;20230;-44
2021/11/29 12:01:39;;;;;;;3.08;1.77;;;;;;;;;;5121211;27;20180;-44
2021/11/29 12:04:09;;;;;;;1.70;1.60;;;;;;;;;;5102553;28;20196;-45
2021/11/29 12:06:36;;;;;;;2.58;1.70;;;;;;;;;;5106931;27;20193;-44
2021/11/29 12:09:04;;;;;;;2.85;1.48;;;;;;;;;;5106800;28;20260;-44
2021/11/29 12:11:33;;;;;;;2.50;1.90;;;;;;;;;;5100603;28;20197;-44
2021/11/29 12:14:13;;;;;;;2.47;1.40;;;;;;;;;;5115667;27;20513;-45
2021/11/29 12:16:41;;;;;;;1.55;1.30;;;;;;;;;;5118056;27;20192;-44
2021/11/29 12:19:13;;;;;;;1.75;1.52;;;;;;;;;;5102768;28;20173;-44
2021/11/29 12:21:40;;;;;;;2.20;1.30;;;;;;;;;;5109041;27;20576;-44
2021/11/29 12:24:12;;;;;;;1.77;1.48;;;;;;;;;;5106791;27;20235;-44
2021/11/29 12:26:48;;;;;;;2.22;1.70;;;;;;;;;;5114376;27;20173;-44
2021/11/29 12:29:23;;;;;;;1.40;1.30;;;;;;;;;;5105482;28;20434;-44
2021/11/29 12:31:52;;;;;;;2.78;1.52;;;;;;;;;;5112825;28;20203;-44
2021/11/29 12:34:37;;;;;;;1.95;1.45;;;;;;;;;;5103536;28;20540;-44
2021/11/29 12:37:04;;;;;;;1.40;1.30;;;;;;;;;;5102044;28;20540;-45
2021/11/29 12:39:45;;;;;;;1.70;1.48;;;;;;;;;;5114023;28;20209;-44
2021/11/29 12:42:20;;;;;;;1.70;1.60;;;;;;;;;;5116509;28;20494;-44
2021/11/29 12:45:04;;;;;;;2.30;1.70;;;;;;;;;;5121803;28;20176;-44
2021/11/29 12:47:39;;;;;;;1.80;1.35;;;;;;;;;;5120847;28;20180;-44
2021/11/29 12:50:07;;;;;;;1.42;1.30;;;;;;;;;;5118179;28;20176;-44
2021/11/29 12:52:36;;;;;;;1.40;1.20;;;;;;;;;;5109993;28;20206;-45
2021/11/29 12:55:03;;;;;;;1.60;1.13;;;;;;;;;;5121776;28;20177;-44
2021/11/29 12:57:37;;;;;;;1.55;1.30;;;;;;;;;;5125058;28;20553;-44
2021/11/29 13:00:06;;;;;;;1.55;1.20;;;;;;;;;;5111952;28;20179;-45
2021/11/29 13:02:36;;;;;;;2.10;1.40;;;;;;;;;;5107613;28;20176;-45
2021/11/29 13:05:02;;;;;;;1.85;1.40;;;;;;;;;;5115264;28;20608;-44
2021/11/29 13:07:46;;;;;;;2.28;1.35;;;;;;;;;;5116238;28;20180;-44
2021/11/29 13:10:31;;;;;;;1.30;1.20;;;;;;;;;;5107704;27;20192;-44
2021/11/29 13:13:16;;;;;;;1.90;1.35;;;;;;;;;;5130478;27;20173;-44
2021/11/29 13:15:55;;;;;;;1.80;1.27;;;;;;;;;;5105696;27;20176;-44
2021/11/29 13:18:40;;;;;;;2.20;1.33;;;;;;;;;;5128961;27;20177;-44
2021/11/29 13:21:06;;;;;;;1.70;1.27;;;;;;;;;;5107653;28;20261;-44
2021/11/29 13:23:32;;;;;;;1.90;1.40;;;;;;;;;;5105031;28;20663;-45
2021/11/29 13:26:04;;;;;;;1.13;1.02;;;;;;;;;;5107108;28;20264;-44
2021/11/29 13:28:31;;;;;;;2.38;1.35;;;;;;;;;;5105647;28;20461;-45
2021/11/29 13:30:57;;;;;;;1.20;1.10;;;;;;;;;;5108763;28;20197;-44
2021/11/29 13:33:23;;;;;;;1.90;1.23;;;;;;;;;;5105955;28;21042;-45
2021/11/29 13:35:49;;;;;;;1.48;1.33;;;;;;;;;;5104494;28;20274;-44
2021/11/29 13:38:15;;;;;;;1.30;1.15;;;;;;;;;;5105756;28;20169;-44
2021/11/29 13:40:42;;;;;;;1.27;1.17;;;;;;;;;;5104212;28;20605;-44
2021/11/29 13:43:08;;;;;;;1.23;1.13;;;;;;;;;;5103032;28;20190;-44
2021/11/29 13:45:37;;;;;;;1.77;1.40;;;;;;;;;;5107374;28;20220;-44
2021/11/29 13:48:08;;;;;;;1.30;1.20;;;;;;;;;;5116041;28;20166;-44
2021/11/29 13:50:35;;;;;;;1.42;1.05;;;;;;;;;;5102597;28;20578;-44
2021/11/29 13:53:03;;;;;;;1.20;1.10;;;;;;;;;;5102320;28;20220;-44
2021/11/29 13:55:32;;;;;;;1.30;1.15;;;;;;;;;;5098801;28;20289;-44
2021/11/29 13:58:06;;;;;;;1.40;1.27;;;;;;;;;;5118203;27;20170;-44
2021/11/29 14:00:34;;;;;;;1.95;1.17;;;;;;;;;;5115659;27;20272;-45
2021/11/29 14:03:09;;;;;;;1.35;1.13;;;;;;;;;;5104389;27;20193;-44
2021/11/29 14:05:46;;;;;;;2.03;1.25;;;;;;;;;;5107959;27;20276;-44
2021/11/29 14:08:19;;;;;;;1.30;1.20;;;;;;;;;;5111978;28;20187;-45
2021/11/29 14:10:48;;;;;;;2.50;1.30;;;;;;;;;;5121749;27;20227;-45
2021/11/29 14:13:17;;;;;;;2.60;1.55;;;;;;;;;;5124930;27;20188;-44
2021/11/29 14:15:50;;;;;;;2.40;1.50;;;;;;;;;;5109029;27;20184;-44
2021/11/29 14:18:16;;;;;;;1.98;1.60;;;;;;;;;;5120020;27;20168;-44
2021/11/29 14:20:42;;;;;;;2.38;1.98;;;;;;;;;;5115022;27;20203;-44
2021/11/29 14:23:10;;;;;;;2.80;2.22;;;;;;;;;;5120309;27;20188;-44
2021/11/29 14:25:43;;;;;;;3.42;2.70;;;;;;;;;;5117648;27;20260;-44
2021/11/29 14:28:10;;;;;;;4.20;2.80;;;;;;;;;;5111292;27;20173;-44
2021/11/29 14:30:37;;;;;;;4.97;2.80;;;;;;;;;;5120818;27;20209;-45
2021/11/29 14:33:03;;;;;;;5.85;3.10;;;;;;;;;;5112291;27;20618;-44
2021/11/29 14:35:30;;;;;;;3.33;2.88;;;;;;;;;;5127225;27;20591;-44
2021/11/29 14:37:58;;;;;;;10.32;2.50;;;;;;;;;;5118310;27;20187;-44
2021/11/29 14:40:24;;;;;;;4.65;3.10;;;;;;;;;;5120743;27;20201;-44
2021/11/29 14:42:52;;;;;;;6.97;3.50;;;;;;;;;;5110354;27;20176;-44